Time;durP1;ratioP1;P1;durP2;ratioP2;P2;SDS_P1;SDS_P2;PMS_P1;PMS_P2;Temp;Humidity;BMP_temperature;BMP_pressure;BME280_temperature;BME280_humidity;BME280_pressure;Samples;Min_cycle;Max_cycle;Signal;HPM_P1;HPM_P2
2022/08/21 00:01:43;;;;;;;1.30;1.02;;;;;;;;;;5047709;28;20052;-52
2022/08/21 00:04:09;;;;;;;1.27;1.17;;;;;;;;;;5047687;28;20056;-51
2022/08/21 00:06:36;;;;;;;1.02;0.80;;;;;;;;;;5046122;28;20056;-53
2022/08/21 00:09:04;;;;;;;1.40;1.08;;;;;;;;;;5047641;28;20045;-51
2022/08/21 00:11:30;;;;;;;1.27;0.90;;;;;;;;;;5047715;28;20041;-54
2022/08/21 00:13:56;;;;;;;1.02;0.93;;;;;;;;;;5045975;28;20497;-51
2022/08/21 00:16:22;;;;;;;0.70;0.70;;;;;;;;;;5048178;28;20037;-52
2022/08/21 00:18:48;;;;;;;1.13;0.77;;;;;;;;;;5046796;28;20037;-52
2022/08/21 00:21:15;;;;;;;3.00;1.08;;;;;;;;;;5047174;28;20068;-48
2022/08/21 00:23:42;;;;;;;0.77;0.77;;;;;;;;;;5047338;28;20557;-53
2022/08/21 00:26:08;;;;;;;1.00;0.80;;;;;;;;;;5047338;28;20092;-53
2022/08/21 00:28:34;;;;;;;0.68;0.68;;;;;;;;;;5046511;28;20051;-48
2022/08/21 00:31:03;;;;;;;1.77;0.93;;;;;;;;;;5047458;28;20041;-54
2022/08/21 00:33:30;;;;;;;1.55;0.90;;;;;;;;;;5047223;28;20049;-52
2022/08/21 00:35:56;;;;;;;1.63;1.15;;;;;;;;;;5043456;28;20110;-53
2022/08/21 00:38:22;;;;;;;0.90;0.90;;;;;;;;;;5047624;28;20044;-54
2022/08/21 00:40:53;;;;;;;1.98;1.00;;;;;;;;;;5046877;28;20045;-51
2022/08/21 00:43:22;;;;;;;1.08;0.70;;;;;;;;;;5047249;28;20486;-57
2022/08/21 00:45:48;;;;;;;0.75;0.68;;;;;;;;;;5046005;28;20052;-54
2022/08/21 00:48:14;;;;;;;2.08;0.77;;;;;;;;;;5046531;28;20452;-54
2022/08/21 00:50:52;;;;;;;1.33;0.85;;;;;;;;;;5046994;28;20053;-49
2022/08/21 00:53:18;;;;;;;1.33;1.02;;;;;;;;;;5038929;28;20084;-54
2022/08/21 00:55:45;;;;;;;0.70;0.70;;;;;;;;;;5036190;28;20056;-51
2022/08/21 00:58:13;;;;;;;0.85;0.80;;;;;;;;;;5031920;28;20494;-53
2022/08/21 01:00:40;;;;;;;1.00;0.75;;;;;;;;;;5035919;28;20505;-52
2022/08/21 01:03:10;;;;;;;1.15;0.90;;;;;;;;;;5036398;28;20059;-49
2022/08/21 01:05:36;;;;;;;1.85;0.95;;;;;;;;;;5033403;28;20484;-56
2022/08/21 01:08:02;;;;;;;1.00;0.80;;;;;;;;;;5038930;28;20269;-51
2022/08/21 01:10:28;;;;;;;1.25;1.00;;;;;;;;;;5037462;28;20041;-52
2022/08/21 01:12:55;;;;;;;0.95;0.70;;;;;;;;;;5037304;28;20067;-52
2022/08/21 01:15:23;;;;;;;0.80;0.80;;;;;;;;;;5034250;28;20041;-53
2022/08/21 01:17:49;;;;;;;1.52;1.00;;;;;;;;;;5035632;28;20047;-50
2022/08/21 01:20:16;;;;;;;0.80;0.80;;;;;;;;;;5036118;28;20107;-51
2022/08/21 01:22:42;;;;;;;1.73;0.80;;;;;;;;;;5034755;28;20080;-51
2022/08/21 01:25:09;;;;;;;1.33;0.90;;;;;;;;;;5037358;28;20618;-51
2022/08/21 01:27:35;;;;;;;1.00;1.00;;;;;;;;;;5039043;28;20041;-51
2022/08/21 01:30:09;;;;;;;0.85;0.85;;;;;;;;;;5035571;28;20042;-51
2022/08/21 01:32:35;;;;;;;1.63;1.13;;;;;;;;;;5032853;28;20115;-50
2022/08/21 01:35:01;;;;;;;1.33;1.00;;;;;;;;;;5037046;28;20502;-55
2022/08/21 01:37:27;;;;;;;2.40;1.13;;;;;;;;;;5037129;28;20048;-51
2022/08/21 01:39:53;;;;;;;1.83;1.23;;;;;;;;;;5040608;28;20091;-57
2022/08/21 01:42:19;;;;;;;0.98;0.70;;;;;;;;;;5034557;28;20069;-58
2022/08/21 01:44:45;;;;;;;0.98;0.98;;;;;;;;;;5032727;28;20285;-57
2022/08/21 01:47:12;;;;;;;1.98;1.30;;;;;;;;;;5035704;28;20042;-52
2022/08/21 01:49:39;;;;;;;3.03;0.90;;;;;;;;;;5036609;28;20053;-54
2022/08/21 01:52:05;;;;;;;1.00;0.90;;;;;;;;;;5039439;28;20048;-53
2022/08/21 01:54:32;;;;;;;1.05;0.90;;;;;;;;;;5045270;28;20105;-56
2022/08/21 01:56:58;;;;;;;1.08;0.95;;;;;;;;;;5045764;28;20143;-51
2022/08/21 01:59:25;;;;;;;1.92;1.10;;;;;;;;;;5044883;28;20485;-51
2022/08/21 02:01:51;;;;;;;1.13;1.00;;;;;;;;;;5045889;28;20406;-56
2022/08/21 02:04:17;;;;;;;1.60;0.93;;;;;;;;;;5045938;28;20045;-51
2022/08/21 02:06:43;;;;;;;1.10;0.93;;;;;;;;;;5044699;28;20049;-52
2022/08/21 02:09:10;;;;;;;2.30;1.20;;;;;;;;;;5045187;28;20044;-50
2022/08/21 02:11:40;;;;;;;1.17;1.00;;;;;;;;;;5045381;28;20048;-50
2022/08/21 02:14:06;;;;;;;1.10;0.88;;;;;;;;;;5044452;28;20049;-51
2022/08/21 02:16:33;;;;;;;1.67;1.00;;;;;;;;;;5045020;28;20048;-54
2022/08/21 02:18:59;;;;;;;1.98;0.98;;;;;;;;;;5045213;28;20417;-51
2022/08/21 02:21:25;;;;;;;1.00;0.77;;;;;;;;;;5041730;28;20508;-51
2022/08/21 02:23:51;;;;;;;1.25;0.77;;;;;;;;;;5045483;28;20051;-55
2022/08/21 02:26:17;;;;;;;1.88;1.08;;;;;;;;;;5040754;28;20071;-51
2022/08/21 02:28:43;;;;;;;1.63;1.20;;;;;;;;;;5044998;28;20060;-55
2022/08/21 02:31:10;;;;;;;1.30;1.20;;;;;;;;;;5044689;28;20401;-53
2022/08/21 02:33:36;;;;;;;1.13;0.90;;;;;;;;;;5044360;28;20043;-53
2022/08/21 02:36:02;;;;;;;1.20;1.00;;;;;;;;;;5045024;28;20037;-53
2022/08/21 02:38:30;;;;;;;1.20;1.10;;;;;;;;;;5044773;28;20099;-55
2022/08/21 02:40:56;;;;;;;1.27;1.02;;;;;;;;;;5042426;28;20047;-52
2022/08/21 02:43:23;;;;;;;0.90;0.90;;;;;;;;;;5045357;28;20060;-52
2022/08/21 02:45:50;;;;;;;1.17;1.10;;;;;;;;;;5045282;28;20039;-51
2022/08/21 02:48:18;;;;;;;1.98;1.00;;;;;;;;;;5044256;28;20144;-53
2022/08/21 02:50:45;;;;;;;1.17;1.08;;;;;;;;;;5044792;28;20164;-52
2022/08/21 02:53:15;;;;;;;1.40;1.30;;;;;;;;;;5041998;28;20060;-51
2022/08/21 02:55:41;;;;;;;1.60;1.23;;;;;;;;;;5031868;28;20061;-51
2022/08/21 02:58:08;;;;;;;2.15;1.02;;;;;;;;;;5038489;28;20037;-50
2022/08/21 03:00:34;;;;;;;2.33;1.38;;;;;;;;;;5041634;28;20428;-49
2022/08/21 03:03:01;;;;;;;0.88;0.88;;;;;;;;;;5033870;28;20503;-56
2022/08/21 03:05:31;;;;;;;1.50;1.35;;;;;;;;;;5032379;28;20052;-50
2022/08/21 03:07:58;;;;;;;1.65;1.38;;;;;;;;;;5038906;28;20077;-51
2022/08/21 03:10:24;;;;;;;1.30;1.17;;;;;;;;;;5038598;28;20127;-58
2022/08/21 03:12:51;;;;;;;1.58;1.48;;;;;;;;;;5034466;28;20457;-50
2022/08/21 03:15:18;;;;;;;1.73;1.30;;;;;;;;;;5032449;28;20073;-56
2022/08/21 03:17:45;;;;;;;2.83;1.30;;;;;;;;;;5040266;28;20049;-55
2022/08/21 03:20:13;;;;;;;1.33;1.20;;;;;;;;;;5035271;28;20174;-52
2022/08/21 03:22:40;;;;;;;1.23;1.13;;;;;;;;;;5041154;28;20047;-56
2022/08/21 03:25:06;;;;;;;0.93;0.93;;;;;;;;;;5038498;28;20102;-51
2022/08/21 03:27:33;;;;;;;1.50;1.30;;;;;;;;;;5037576;28;20137;-52
2022/08/21 03:29:59;;;;;;;1.40;1.30;;;;;;;;;;5038446;28;20130;-52
2022/08/21 03:32:26;;;;;;;2.53;1.58;;;;;;;;;;5035044;28;20053;-58
2022/08/21 03:34:52;;;;;;;1.40;1.30;;;;;;;;;;5036294;28;20048;-53
2022/08/21 03:37:18;;;;;;;2.10;1.33;;;;;;;;;;5038873;28;20049;-51
2022/08/21 03:39:44;;;;;;;1.40;1.27;;;;;;;;;;5035068;28;20088;-51
2022/08/21 03:42:11;;;;;;;1.20;1.10;;;;;;;;;;5038989;28;20037;-51
2022/08/21 03:44:39;;;;;;;1.58;1.40;;;;;;;;;;5034132;28;20049;-53
2022/08/21 03:47:05;;;;;;;1.30;1.20;;;;;;;;;;5032573;28;20077;-52
2022/08/21 03:49:31;;;;;;;1.90;1.30;;;;;;;;;;5036804;28;20045;-51
2022/08/21 03:51:57;;;;;;;1.45;1.35;;;;;;;;;;5035429;28;20041;-51
2022/08/21 03:54:23;;;;;;;1.45;1.35;;;;;;;;;;5041364;28;20091;-51
2022/08/21 03:56:49;;;;;;;1.55;1.45;;;;;;;;;;5037146;28;20049;-51
2022/08/21 03:59:16;;;;;;;1.17;1.08;;;;;;;;;;5038055;28;20790;-55
2022/08/21 04:01:51;;;;;;;1.92;1.50;;;;;;;;;;5036401;28;20513;-50
2022/08/21 04:04:17;;;;;;;1.92;1.63;;;;;;;;;;5036425;28;20048;-50
2022/08/21 04:06:43;;;;;;;2.35;1.63;;;;;;;;;;5040060;28;20729;-50
2022/08/21 04:09:09;;;;;;;1.63;1.48;;;;;;;;;;5028503;28;20056;-53
2022/08/21 04:11:36;;;;;;;2.42;1.50;;;;;;;;;;5031534;28;20088;-51
2022/08/21 04:14:02;;;;;;;1.40;1.30;;;;;;;;;;5036302;28;20116;-50
2022/08/21 04:16:28;;;;;;;1.80;1.60;;;;;;;;;;5036593;28;20061;-50
2022/08/21 04:18:54;;;;;;;1.15;0.95;;;;;;;;;;5039077;28;20498;-56
2022/08/21 04:21:21;;;;;;;1.67;1.58;;;;;;;;;;5037407;28;20041;-55
2022/08/21 04:23:47;;;;;;;1.38;1.27;;;;;;;;;;5037337;28;20053;-54
2022/08/21 04:26:12;;;;;;;1.70;1.45;;;;;;;;;;5039116;28;20448;-51
2022/08/21 04:28:39;;;;;;;2.50;1.40;;;;;;;;;;5037179;28;20124;-51
2022/08/21 04:31:05;;;;;;;2.22;1.50;;;;;;;;;;5036658;28;20054;-50
2022/08/21 04:33:31;;;;;;;1.45;1.35;;;;;;;;;;5037361;28;20061;-51
2022/08/21 04:35:57;;;;;;;1.67;1.55;;;;;;;;;;5038927;28;20049;-52
2022/08/21 04:38:23;;;;;;;1.30;1.20;;;;;;;;;;5041669;28;20051;-52
2022/08/21 04:40:50;;;;;;;1.70;1.30;;;;;;;;;;5031411;28;20061;-53
2022/08/21 04:43:16;;;;;;;1.30;1.02;;;;;;;;;;5036822;28;20053;-55
2022/08/21 04:45:44;;;;;;;1.58;1.48;;;;;;;;;;5038506;28;20052;-52
2022/08/21 04:48:12;;;;;;;1.58;1.42;;;;;;;;;;5032037;28;20468;-52
2022/08/21 04:50:48;;;;;;;1.38;1.25;;;;;;;;;;5035358;28;20125;-57
2022/08/21 04:53:16;;;;;;;1.85;1.50;;;;;;;;;;5041585;28;20147;-54
2022/08/21 04:55:44;;;;;;;3.33;1.27;;;;;;;;;;5046428;28;20052;-55
2022/08/21 04:58:12;;;;;;;1.38;1.27;;;;;;;;;;5047058;28;20049;-54
2022/08/21 05:00:38;;;;;;;1.85;1.52;;;;;;;;;;5046791;28;20049;-54
2022/08/21 05:03:06;;;;;;;1.10;1.05;;;;;;;;;;5044738;28;20119;-50
2022/08/21 05:05:32;;;;;;;1.38;1.25;;;;;;;;;;5046985;28;20130;-53
2022/08/21 05:08:01;;;;;;;1.27;1.20;;;;;;;;;;5045789;28;20071;-52
2022/08/21 05:10:28;;;;;;;1.20;1.10;;;;;;;;;;5047051;28;20485;-55
2022/08/21 05:12:54;;;;;;;1.40;1.30;;;;;;;;;;5047399;28;20059;-53
2022/08/21 05:15:21;;;;;;;1.15;1.05;;;;;;;;;;5046978;28;20052;-53
2022/08/21 05:17:47;;;;;;;1.92;1.25;;;;;;;;;;5043715;28;20076;-52
2022/08/21 05:20:14;;;;;;;2.65;1.52;;;;;;;;;;5046754;28;20556;-52
2022/08/21 05:22:41;;;;;;;1.50;1.08;;;;;;;;;;5045307;28;20037;-52
2022/08/21 05:25:07;;;;;;;1.33;1.13;;;;;;;;;;5046666;28;20099;-51
2022/08/21 05:27:33;;;;;;;1.75;1.35;;;;;;;;;;5046415;28;20114;-52
2022/08/21 05:29:59;;;;;;;1.40;1.25;;;;;;;;;;5045860;28;20041;-52
2022/08/21 05:32:27;;;;;;;1.52;1.40;;;;;;;;;;5046017;28;20049;-60
2022/08/21 05:34:53;;;;;;;0.93;0.82;;;;;;;;;;5046578;28;20057;-49
2022/08/21 05:37:19;;;;;;;2.05;1.17;;;;;;;;;;5046211;28;20044;-53
2022/08/21 05:39:45;;;;;;;1.40;1.30;;;;;;;;;;5046052;28;20236;-52
2022/08/21 05:42:11;;;;;;;1.50;1.40;;;;;;;;;;5046270;28;20036;-52
2022/08/21 05:44:37;;;;;;;1.63;0.93;;;;;;;;;;5045275;28;20548;-50
2022/08/21 05:47:08;;;;;;;1.77;1.35;;;;;;;;;;5045368;28;20083;-56
2022/08/21 05:49:34;;;;;;;1.80;1.52;;;;;;;;;;5045900;28;20072;-53
2022/08/21 05:52:00;;;;;;;3.88;2.10;;;;;;;;;;5045533;28;20045;-51
2022/08/21 05:54:26;;;;;;;1.80;1.38;;;;;;;;;;5045721;28;20425;-52
2022/08/21 05:56:52;;;;;;;2.72;1.70;;;;;;;;;;5046419;28;20037;-58
2022/08/21 05:59:18;;;;;;;1.65;1.38;;;;;;;;;;5044424;28;20041;-52
2022/08/21 06:01:45;;;;;;;3.03;1.30;;;;;;;;;;5045951;28;20047;-54
2022/08/21 06:04:11;;;;;;;2.00;1.80;;;;;;;;;;5045867;28;20044;-58
2022/08/21 06:06:37;;;;;;;4.38;1.63;;;;;;;;;;5045683;28;20043;-51
2022/08/21 06:09:04;;;;;;;2.75;1.65;;;;;;;;;;5044744;28;20052;-57
2022/08/21 06:11:30;;;;;;;2.05;1.50;;;;;;;;;;5044850;28;20041;-52
2022/08/21 06:13:56;;;;;;;1.73;1.40;;;;;;;;;;5046022;28;20041;-53
2022/08/21 06:16:22;;;;;;;2.47;1.85;;;;;;;;;;5046388;28;20119;-61
2022/08/21 06:18:48;;;;;;;2.17;1.70;;;;;;;;;;5044104;28;20187;-50
2022/08/21 06:21:15;;;;;;;2.38;1.58;;;;;;;;;;5045795;28;20041;-55
2022/08/21 06:23:41;;;;;;;1.50;1.40;;;;;;;;;;5045184;28;20465;-52
2022/08/21 06:26:07;;;;;;;;;;;;;;;;;;5045389;28;20094;-50
2022/08/21 06:28:33;;;;;;;;;;;;;;;;;;5045656;28;19936;-58
2022/08/21 06:30:59;;;;;;;;;;;;;;;;;;5045918;28;20336;-53
2022/08/21 06:33:25;;;;;;;;;;;;;;;;;;5045815;28;19974;-58
2022/08/21 06:35:51;;;;;;;;;;;;;;;;;;5045386;28;19920;-52
2022/08/21 06:38:17;;;;;;;;;;;;;;;;;;5045914;28;19925;-56
2022/08/21 06:40:43;;;;;;;;;;;;;;;;;;5044904;28;20015;-52
2022/08/21 06:43:09;;;;;;;;;;;;;;;;;;5045511;28;19929;-55
2022/08/21 06:45:34;;;;;;;;;;;;;;;;;;5042358;28;20464;-49
2022/08/21 06:48:01;;;;;;;;;;;;;;;;;;5039676;28;19929;-55
2022/08/21 06:50:27;;;;;;;;;;;;;;;;;;5045368;28;20394;-56
2022/08/21 06:52:52;;;;;;;;;;;;;;;;;;5045824;28;19983;-53
2022/08/21 06:55:18;;;;;;;1.30;1.08;;;;;;;;;;5041588;28;19968;-51
2022/08/21 06:57:44;;;;;;;2.78;1.75;;;;;;;;;;5040440;28;19956;-51
2022/08/21 07:00:11;;;;;;;3.28;2.67;;;;;;;;;;5028269;28;20528;-53
2022/08/21 07:02:37;;;;;;;3.53;2.43;;;;;;;;;;5044570;28;20053;-51
2022/08/21 07:05:03;;;;;;;2.95;2.10;;;;;;;;;;5043735;28;20387;-54
2022/08/21 07:07:29;;;;;;;;;;;;;;;;;;5043780;28;20523;-57
2022/08/21 07:09:55;;;;;;;;;;;;;;;;;;5046370;28;19924;-58
2022/08/21 07:12:21;;;;;;;;;;;;;;;;;;5046768;28;20328;-53
2022/08/21 07:14:47;;;;;;;;;;;;;;;;;;5045212;28;19924;-55
2022/08/21 07:17:13;;;;;;;;;;;;;;;;;;5045062;28;19931;-52
2022/08/21 07:19:39;;;;;;;3.80;1.60;;;;;;;;;;5046583;28;19925;-53
2022/08/21 07:22:05;;;;;;;1.90;1.30;;;;;;;;;;5045305;28;20151;-54
2022/08/21 07:24:31;;;;;;;3.28;1.50;;;;;;;;;;5045597;28;20048;-55
2022/08/21 07:26:57;;;;;;;6.70;2.45;;;;;;;;;;5045824;28;20047;-52
2022/08/21 07:29:23;;;;;;;7.22;2.38;;;;;;;;;;5045425;28;20102;-55
2022/08/21 07:31:48;;;;;;;6.00;2.08;;;;;;;;;;5045510;28;20411;-52
2022/08/21 07:34:15;;;;;;;2.67;1.52;;;;;;;;;;5045662;28;20077;-55
2022/08/21 07:36:41;;;;;;;2.08;0.88;;;;;;;;;;5044972;28;20044;-50
2022/08/21 07:39:07;;;;;;;3.22;1.45;;;;;;;;;;5045370;28;20103;-50
2022/08/21 07:41:35;;;;;;;2.28;1.27;;;;;;;;;;5045462;28;20056;-55
2022/08/21 07:44:01;;;;;;;5.93;1.60;;;;;;;;;;5044617;28;20049;-52
2022/08/21 07:46:27;;;;;;;3.90;1.52;;;;;;;;;;5045732;28;20037;-52
2022/08/21 07:48:53;;;;;;;3.78;1.67;;;;;;;;;;5041325;28;20540;-52
2022/08/21 07:51:21;;;;;;;4.93;2.28;;;;;;;;;;5043704;28;20037;-51
2022/08/21 07:53:51;;;;;;;5.00;2.05;;;;;;;;;;5032584;28;20057;-54
2022/08/21 07:56:17;;;;;;;3.65;1.85;;;;;;;;;;5025029;28;20417;-56
2022/08/21 07:58:43;;;;;;;7.20;2.55;;;;;;;;;;5024065;28;20037;-53
2022/08/21 08:01:09;;;;;;;7.55;1.98;;;;;;;;;;5024640;28;20044;-57
2022/08/21 08:03:35;;;;;;;3.22;1.10;;;;;;;;;;5024667;28;20092;-52
2022/08/21 08:06:04;;;;;;;3.22;1.33;;;;;;;;;;5024995;28;20037;-52
2022/08/21 08:08:30;;;;;;;3.92;1.60;;;;;;;;;;5028037;28;20049;-52
2022/08/21 08:10:57;;;;;;;4.72;1.60;;;;;;;;;;5027891;28;20116;-63
2022/08/21 08:13:23;;;;;;;5.63;1.73;;;;;;;;;;5029119;28;20096;-52
2022/08/21 08:15:49;;;;;;;2.80;1.38;;;;;;;;;;5027482;28;20544;-50
2022/08/21 08:18:15;;;;;;;2.42;1.08;;;;;;;;;;5024114;28;20405;-53
2022/08/21 08:20:41;;;;;;;3.97;1.42;;;;;;;;;;5027430;28;20481;-52
2022/08/21 08:23:10;;;;;;;4.63;1.33;;;;;;;;;;5023186;28;20049;-54
2022/08/21 08:25:36;;;;;;;4.78;1.80;;;;;;;;;;5026046;28;20037;-51
2022/08/21 08:28:02;;;;;;;4.45;2.15;;;;;;;;;;5024078;28;20133;-58
2022/08/21 08:30:28;;;;;;;4.38;1.77;;;;;;;;;;5027849;28;20041;-51
2022/08/21 08:32:54;;;;;;;3.65;1.73;;;;;;;;;;5027512;28;20052;-53
2022/08/21 08:35:20;;;;;;;3.60;1.42;;;;;;;;;;5008760;28;20053;-51
2022/08/21 08:37:46;;;;;;;5.70;1.70;;;;;;;;;;5027645;28;20349;-58
2022/08/21 08:40:21;;;;;;;4.32;1.55;;;;;;;;;;5021927;28;20024;-56
2022/08/21 08:42:47;;;;;;;5.47;1.75;;;;;;;;;;5009723;28;20045;-51
2022/08/21 08:45:16;;;;;;;4.40;1.80;;;;;;;;;;5008636;28;20046;-59
2022/08/21 08:47:47;;;;;;;8.57;1.98;;;;;;;;;;5019070;28;20512;-53
2022/08/21 08:50:21;;;;;;;6.70;2.17;;;;;;;;;;5018708;28;20139;-55
2022/08/21 08:53:05;;;;;;;6.20;2.20;;;;;;;;;;5030138;28;20573;-56
2022/08/21 08:55:36;;;;;;;6.30;2.17;;;;;;;;;;5047206;28;20130;-50
2022/08/21 08:58:03;;;;;;;4.50;1.57;;;;;;;;;;5042911;28;20103;-55
2022/08/21 09:00:30;;;;;;;3.17;1.60;;;;;;;;;;5046463;28;20341;-51
2022/08/21 09:02:58;;;;;;;2.15;1.25;;;;;;;;;;5047245;28;20102;-57
2022/08/21 09:05:36;;;;;;;5.15;1.55;;;;;;;;;;5047564;28;20124;-62
2022/08/21 09:08:20;;;;;;;4.72;2.00;;;;;;;;;;5046347;28;20448;-57
2022/08/21 09:11:02;;;;;;;3.13;1.48;;;;;;;;;;5046555;28;20047;-58
2022/08/21 09:13:45;;;;;;;3.80;1.30;;;;;;;;;;5047075;28;20045;-53
2022/08/21 09:16:15;;;;;;;2.42;1.67;;;;;;;;;;5046654;28;20052;-52
2022/08/21 09:18:56;;;;;;;5.60;1.67;;;;;;;;;;5045933;28;20397;-49
2022/08/21 09:21:26;;;;;;;6.57;2.20;;;;;;;;;;5047106;28;20130;-55
2022/08/21 09:24:02;;;;;;;3.17;1.60;;;;;;;;;;5042503;28;20075;-52
2022/08/21 09:26:32;;;;;;;3.80;1.92;;;;;;;;;;5046476;28;20131;-53
2022/08/21 09:29:00;;;;;;;4.35;2.03;;;;;;;;;;5046038;28;20053;-57
2022/08/21 09:31:26;;;;;;;4.70;1.77;;;;;;;;;;5046370;28;20045;-59
2022/08/21 09:34:18;;;;;;;2.55;0.93;;;;;;;;;;5047077;28;20129;-52
2022/08/21 09:36:46;;;;;;;2.42;1.30;;;;;;;;;;5042796;28;20429;-51
2022/08/21 09:39:13;;;;;;;4.55;1.95;;;;;;;;;;5046808;28;20422;-57
2022/08/21 09:41:40;;;;;;;4.72;1.63;;;;;;;;;;5046470;28;20037;-52
2022/08/21 09:44:07;;;;;;;4.28;1.77;;;;;;;;;;5045727;28;20078;-53
2022/08/21 09:46:33;;;;;;;3.50;1.60;;;;;;;;;;5046076;28;20119;-52
2022/08/21 09:49:01;;;;;;;3.63;1.83;;;;;;;;;;5046255;28;20047;-50
2022/08/21 09:51:29;;;;;;;2.63;1.33;;;;;;;;;;5045147;28;20393;-58
2022/08/21 09:54:13;;;;;;;2.83;1.20;;;;;;;;;;5045961;28;20130;-52
2022/08/21 09:59:38;;;;;;;2.30;1.00;;;;;;;;;;5043993;28;20505;-53
2022/08/21 10:02:20;;;;;;;3.67;1.23;;;;;;;;;;5045945;28;20037;-50
2022/08/21 10:04:50;;;;;;;3.78;1.30;;;;;;;;;;5044938;28;20438;-58
2022/08/21 10:07:16;;;;;;;3.30;1.35;;;;;;;;;;5046044;28;20272;-52
2022/08/21 10:09:42;;;;;;;4.75;1.63;;;;;;;;;;5045656;28;20052;-56
2022/08/21 10:12:25;;;;;;;3.88;1.25;;;;;;;;;;5045320;28;20187;-53
2022/08/21 10:15:06;;;;;;;2.83;1.38;;;;;;;;;;5046248;28;20041;-53
2022/08/21 10:17:43;;;;;;;2.65;1.00;;;;;;;;;;5044984;28;20049;-57
2022/08/21 10:20:17;;;;;;;2.75;1.50;;;;;;;;;;5046025;28;20048;-53
2022/08/21 10:22:43;;;;;;;3.03;1.40;;;;;;;;;;5045768;28;20048;-50
2022/08/21 10:25:21;;;;;;;2.13;1.17;;;;;;;;;;5045102;28;20106;-52
2022/08/21 10:27:47;;;;;;;1.63;0.93;;;;;;;;;;5044728;28;20045;-50
2022/08/21 10:30:14;;;;;;;2.80;1.02;;;;;;;;;;5045497;28;20445;-56
2022/08/21 10:32:59;;;;;;;1.55;1.00;;;;;;;;;;5044667;28;20041;-53
2022/08/21 10:35:30;;;;;;;3.00;1.10;;;;;;;;;;5046302;28;20383;-54
2022/08/21 10:38:05;;;;;;;3.78;1.20;;;;;;;;;;5039585;28;20397;-62
2022/08/21 10:40:41;;;;;;;2.47;1.40;;;;;;;;;;5044884;28;20056;-53
2022/08/21 10:43:10;;;;;;;3.35;1.38;;;;;;;;;;5045326;28;20045;-53
2022/08/21 10:45:54;;;;;;;3.78;1.48;;;;;;;;;;5044944;28;20095;-52
2022/08/21 10:48:36;;;;;;;2.53;1.33;;;;;;;;;;5038048;28;20049;-60
2022/08/21 10:51:31;;;;;;;1.55;0.60;;;;;;;;;;5037974;28;20052;-51
2022/08/21 10:54:05;;;;;;;1.40;0.70;;;;;;;;;;5019880;28;20527;-56
2022/08/21 10:56:34;;;;;;;3.47;1.10;;;;;;;;;;5025585;28;20449;-57
2022/08/21 10:59:08;;;;;;;4.35;1.35;;;;;;;;;;5032813;28;20044;-53
2022/08/21 11:01:45;;;;;;;3.97;1.30;;;;;;;;;;5025300;28;20514;-53
2022/08/21 11:04:12;;;;;;;5.00;1.85;;;;;;;;;;5026844;28;20072;-55
2022/08/21 11:06:42;;;;;;;5.05;1.73;;;;;;;;;;5018531;28;20486;-53
2022/08/21 11:09:12;;;;;;;2.30;1.45;;;;;;;;;;5036937;28;20048;-53
2022/08/21 11:11:54;;;;;;;2.53;0.90;;;;;;;;;;5038860;28;20045;-52
2022/08/21 11:14:30;;;;;;;2.85;1.42;;;;;;;;;;5029261;28;20041;-54
2022/08/21 11:17:03;;;;;;;2.53;1.40;;;;;;;;;;5021817;28;20568;-57
2022/08/21 11:19:38;;;;;;;3.20;1.58;;;;;;;;;;5025069;28;20045;-59
2022/08/21 11:22:23;;;;;;;3.53;1.35;;;;;;;;;;5043039;28;20055;-54
2022/08/21 11:24:56;;;;;;;4.65;1.75;;;;;;;;;;5031927;28;20046;-53
2022/08/21 11:27:33;;;;;;;2.13;1.10;;;;;;;;;;5041402;28;20056;-61
2022/08/21 11:30:00;;;;;;;2.22;1.15;;;;;;;;;;5024529;28;20124;-55
2022/08/21 11:32:29;;;;;;;1.45;1.17;;;;;;;;;;5011407;28;20049;-52
2022/08/21 11:35:03;;;;;;;1.77;1.00;;;;;;;;;;5042795;28;20045;-53
2022/08/21 11:37:48;;;;;;;1.50;0.75;;;;;;;;;;5037582;28;20030;-55
2022/08/21 11:40:20;;;;;;;1.52;0.70;;;;;;;;;;5036632;28;20606;-53
2022/08/21 11:42:56;;;;;;;2.55;1.10;;;;;;;;;;5020308;28;20086;-62
2022/08/21 11:45:22;;;;;;;1.38;1.10;;;;;;;;;;5010602;28;20458;-56
2022/08/21 11:47:51;;;;;;;0.85;0.60;;;;;;;;;;5010218;28;20104;-54
2022/08/21 11:50:37;;;;;;;2.28;0.85;;;;;;;;;;5009348;28;20131;-55
2022/08/21 11:53:12;;;;;;;1.10;0.70;;;;;;;;;;5024944;28;20061;-55
2022/08/21 11:55:41;;;;;;;0.80;0.75;;;;;;;;;;5034080;28;20044;-54
2022/08/21 11:58:14;;;;;;;1.45;0.77;;;;;;;;;;5047664;28;20501;-52
2022/08/21 12:00:47;;;;;;;2.35;1.00;;;;;;;;;;5048295;28;20117;-52
2022/08/21 12:03:16;;;;;;;1.15;0.65;;;;;;;;;;5047888;28;20740;-52
2022/08/21 12:05:44;;;;;;;1.17;0.70;;;;;;;;;;5048092;28;20080;-55
2022/08/21 12:08:10;;;;;;;1.48;0.80;;;;;;;;;;5048304;28;20136;-58
2022/08/21 12:10:39;;;;;;;2.10;0.95;;;;;;;;;;5045762;28;20172;-51
2022/08/21 12:13:32;;;;;;;2.85;1.10;;;;;;;;;;5042046;28;20120;-55
2022/08/21 12:16:12;;;;;;;1.15;0.90;;;;;;;;;;5038320;28;20075;-54
2022/08/21 12:18:38;;;;;;;0.90;0.70;;;;;;;;;;5047846;28;20128;-54
2022/08/21 12:21:17;;;;;;;2.30;1.30;;;;;;;;;;5048168;28;20040;-53
2022/08/21 12:23:47;;;;;;;3.38;1.25;;;;;;;;;;5047896;28;20513;-52
2022/08/21 12:26:31;;;;;;;2.78;1.13;;;;;;;;;;5045646;28;20634;-58
2022/08/21 12:29:11;;;;;;;3.22;0.90;;;;;;;;;;5042399;28;20051;-56
2022/08/21 12:31:47;;;;;;;6.72;1.20;;;;;;;;;;5039910;28;20094;-54
2022/08/21 12:34:14;;;;;;;2.00;0.70;;;;;;;;;;5047990;28;20064;-55
2022/08/21 12:37:01;;;;;;;2.78;1.15;;;;;;;;;;5047538;28;20048;-53
2022/08/21 12:39:29;;;;;;;1.48;0.73;;;;;;;;;;4996549;28;20052;-59
2022/08/21 12:41:58;;;;;;;0.60;0.50;;;;;;;;;;5048331;28;20048;-53
2022/08/21 12:44:34;;;;;;;1.17;0.60;;;;;;;;;;5048359;28;20121;-58
2022/08/21 12:47:04;;;;;;;0.95;0.43;;;;;;;;;;5047056;28;20119;-54
2022/08/21 12:49:37;;;;;;;0.70;0.50;;;;;;;;;;5046913;28;20091;-53
2022/08/21 12:52:03;;;;;;;1.73;0.75;;;;;;;;;;5046712;28;20048;-53
2022/08/21 12:54:31;;;;;;;0.77;0.50;;;;;;;;;;5033920;28;20136;-59
2022/08/21 12:57:02;;;;;;;0.80;0.45;;;;;;;;;;5028700;28;20041;-59
2022/08/21 12:59:28;;;;;;;1.80;0.67;;;;;;;;;;5041999;28;20060;-56
2022/08/21 13:01:55;;;;;;;1.10;0.55;;;;;;;;;;5040934;28;20385;-53
2022/08/21 13:04:42;;;;;;;0.80;0.40;;;;;;;;;;5040187;28;20045;-60
2022/08/21 13:07:11;;;;;;;0.57;0.43;;;;;;;;;;5039506;28;20119;-59
2022/08/21 13:09:41;;;;;;;0.47;0.40;;;;;;;;;;5046928;28;20049;-53
2022/08/21 13:12:09;;;;;;;0.88;0.50;;;;;;;;;;5045730;28;20456;-53
2022/08/21 13:14:35;;;;;;;0.90;0.50;;;;;;;;;;5046039;28;20493;-53
2022/08/21 13:17:03;;;;;;;1.02;0.52;;;;;;;;;;5033087;28;20492;-53
2022/08/21 13:19:29;;;;;;;1.00;0.52;;;;;;;;;;5027315;28;20033;-58
2022/08/21 13:21:56;;;;;;;1.00;0.60;;;;;;;;;;5018815;28;20103;-51
2022/08/21 13:24:24;;;;;;;1.33;0.50;;;;;;;;;;5045887;28;20040;-60
2022/08/21 13:26:51;;;;;;;0.93;0.60;;;;;;;;;;5033471;28;20077;-56
2022/08/21 13:29:19;;;;;;;0.85;0.65;;;;;;;;;;5026604;28;20057;-54
2022/08/21 13:31:53;;;;;;;0.70;0.50;;;;;;;;;;5031826;28;20382;-59
2022/08/21 13:34:20;;;;;;;0.52;0.40;;;;;;;;;;5039084;28;20053;-58
2022/08/21 13:36:46;;;;;;;1.17;0.40;;;;;;;;;;5043020;28;20511;-55
2022/08/21 13:39:15;;;;;;;0.40;0.20;;;;;;;;;;5046736;28;20041;-57
2022/08/21 13:41:43;;;;;;;0.50;0.43;;;;;;;;;;5045478;28;20148;-52
2022/08/21 13:44:21;;;;;;;0.45;0.40;;;;;;;;;;5033572;28;20045;-54
2022/08/21 13:46:48;;;;;;;0.32;0.30;;;;;;;;;;5040372;28;20049;-56
2022/08/21 13:49:16;;;;;;;0.82;0.35;;;;;;;;;;5018853;28;20073;-58
2022/08/21 13:51:42;;;;;;;0.65;0.40;;;;;;;;;;5013955;28;20386;-54
2022/08/21 13:54:35;;;;;;;0.52;0.30;;;;;;;;;;5040412;28;20060;-61
2022/08/21 13:57:01;;;;;;;0.45;0.40;;;;;;;;;;5039755;28;20041;-51
2022/08/21 13:59:28;;;;;;;0.50;0.30;;;;;;;;;;5046309;28;20508;-52
2022/08/21 14:01:58;;;;;;;2.38;0.40;;;;;;;;;;5046330;28;20045;-52
2022/08/21 14:04:33;;;;;;;0.30;0.30;;;;;;;;;;5045898;28;19978;-56
2022/08/21 14:06:59;;;;;;;0.90;0.50;;;;;;;;;;5039906;28;20045;-57
2022/08/21 14:09:36;;;;;;;0.50;0.40;;;;;;;;;;5046874;28;20041;-53
2022/08/21 14:12:11;;;;;;;1.30;0.60;;;;;;;;;;5038372;28;20045;-55
2022/08/21 14:14:39;;;;;;;1.05;0.30;;;;;;;;;;5043435;28;20044;-53
2022/08/21 14:17:07;;;;;;;0.40;0.40;;;;;;;;;;5045006;28;20600;-52
2022/08/21 14:19:43;;;;;;;1.70;0.77;;;;;;;;;;5045895;28;20116;-55
2022/08/21 14:22:29;;;;;;;1.38;0.63;;;;;;;;;;5028022;28;20112;-53
2022/08/21 14:25:06;;;;;;;1.17;0.30;;;;;;;;;;5045084;28;20175;-52
2022/08/21 14:27:33;;;;;;;0.25;0.20;;;;;;;;;;5045704;28;20134;-57
2022/08/21 14:30:01;;;;;;;1.20;0.52;;;;;;;;;;5045786;28;20048;-55
2022/08/21 14:32:29;;;;;;;1.42;0.77;;;;;;;;;;5045172;28;20040;-57
2022/08/21 14:34:56;;;;;;;2.45;0.90;;;;;;;;;;5046150;28;20052;-53
2022/08/21 14:37:23;;;;;;;0.82;0.50;;;;;;;;;;5046353;28;20064;-52
2022/08/21 14:39:49;;;;;;;0.88;0.80;;;;;;;;;;5041890;28;20041;-50
2022/08/21 14:42:15;;;;;;;2.72;0.88;;;;;;;;;;5036478;28;20041;-53
2022/08/21 14:44:41;;;;;;;1.48;0.80;;;;;;;;;;5044796;28;20506;-59
2022/08/21 14:47:08;;;;;;;2.38;1.08;;;;;;;;;;5027922;28;20041;-52
2022/08/21 14:49:34;;;;;;;2.72;1.10;;;;;;;;;;5045068;28;20551;-53
2022/08/21 14:52:00;;;;;;;1.15;1.00;;;;;;;;;;5038259;28;20041;-56
2022/08/21 14:54:30;;;;;;;0.98;0.77;;;;;;;;;;5035813;28;20063;-57
2022/08/21 14:56:58;;;;;;;2.75;0.88;;;;;;;;;;5037642;28;20053;-64
2022/08/21 14:59:25;;;;;;;0.70;0.70;;;;;;;;;;5031516;28;20123;-53
2022/08/21 15:01:52;;;;;;;1.27;0.80;;;;;;;;;;5032230;28;20045;-59